sensor_id;sensor_type;location;lat;lon;timestamp;pressure;altitude;pressure_sealevel;temperature;humidity
41624;BME280;27319;50.306;18.926;2024-03-02T00:00:10;97792.06;;;7.20;99.88
41624;BME280;27319;50.306;18.926;2024-03-02T00:04:30;97795.91;;;7.19;99.49
41624;BME280;27319;50.306;18.926;2024-03-02T00:08:31;97800.50;;;7.11;99.18
41624;BME280;27319;50.306;18.926;2024-03-02T00:12:32;97788.09;;;7.00;99.07
41624;BME280;27319;50.306;18.926;2024-03-02T00:16:33;97790.31;;;6.84;99.29
41624;BME280;27319;50.306;18.926;2024-03-02T00:20:17;97785.72;;;6.88;99.84
41624;BME280;27319;50.306;18.926;2024-03-02T00:23:32;97794.63;;;6.99;98.68
41624;BME280;27319;50.306;18.926;2024-03-02T00:26:34;97793.38;;;6.86;98.38
41624;BME280;27319;50.306;18.926;2024-03-02T00:29:35;97795.34;;;6.89;97.91
41624;BME280;27319;50.306;18.926;2024-03-02T00:32:36;97803.72;;;6.80;98.05
41624;BME280;27319;50.306;18.926;2024-03-02T00:35:37;97802.06;;;6.61;98.29
41624;BME280;27319;50.306;18.926;2024-03-02T00:38:44;97798.91;;;6.52;98.42
41624;BME280;27319;50.306;18.926;2024-03-02T00:42:44;97805.16;;;6.63;98.52
41624;BME280;27319;50.306;18.926;2024-03-02T00:46:45;97807.31;;;6.47;98.83
41624;BME280;27319;50.306;18.926;2024-03-02T00:50:49;97800.44;;;6.50;98.83
41624;BME280;27319;50.306;18.926;2024-03-02T00:54:47;97794.59;;;6.44;98.90
41624;BME280;27319;50.306;18.926;2024-03-02T00:58:28;97799.16;;;6.37;98.44
41624;BME280;27319;50.306;18.926;2024-03-02T01:01:29;97791.34;;;6.21;98.87
41624;BME280;27319;50.306;18.926;2024-03-02T01:04:30;97796.78;;;6.28;98.53
41624;BME280;27319;50.306;18.926;2024-03-02T01:07:31;97788.44;;;6.44;99.52
41624;BME280;27319;50.306;18.926;2024-03-02T01:10:52;97801.97;;;6.07;98.58
41624;BME280;27319;50.306;18.926;2024-03-02T01:14:52;97789.84;;;6.27;98.26
41624;BME280;27319;50.306;18.926;2024-03-02T01:18:53;97790.94;;;6.22;98.60
41624;BME280;27319;50.306;18.926;2024-03-02T01:22:54;97781.38;;;6.25;97.96
41624;BME280;27319;50.306;18.926;2024-03-02T01:26:55;97774.09;;;6.25;98.22
41624;BME280;27319;50.306;18.926;2024-03-02T01:30:56;97771.81;;;6.31;97.92
41624;BME280;27319;50.306;18.926;2024-03-02T01:34:57;97763.34;;;6.25;99.14
41624;BME280;27319;50.306;18.926;2024-03-02T01:38:57;97766.09;;;6.32;98.64
41624;BME280;27319;50.306;18.926;2024-03-02T01:42:58;97754.56;;;6.32;98.77
41624;BME280;27319;50.306;18.926;2024-03-02T01:46:59;97756.72;;;6.16;99.51
41624;BME280;27319;50.306;18.926;2024-03-02T01:51:00;97757.53;;;6.20;99.44
41624;BME280;27319;50.306;18.926;2024-03-02T01:55:01;97753.69;;;6.21;99.42
41624;BME280;27319;50.306;18.926;2024-03-02T01:59:02;97752.09;;;6.13;99.61
41624;BME280;27319;50.306;18.926;2024-03-02T02:03:02;97752.56;;;6.22;99.76
41624;BME280;27319;50.306;18.926;2024-03-02T02:07:06;97747.66;;;6.35;99.04
41624;BME280;27319;50.306;18.926;2024-03-02T02:11:07;97746.94;;;6.41;98.73
41624;BME280;27319;50.306;18.926;2024-03-02T02:15:26;97737.75;;;6.42;98.70
41624;BME280;27319;50.306;18.926;2024-03-02T02:19:27;97741.47;;;6.27;99.07
41624;BME280;27319;50.306;18.926;2024-03-02T02:23:28;97731.13;;;6.32;99.11
41624;BME280;27319;50.306;18.926;2024-03-02T02:27:28;97731.06;;;6.25;99.27
41624;BME280;27319;50.306;18.926;2024-03-02T02:31:38;97721.50;;;6.31;98.90
41624;BME280;27319;50.306;18.926;2024-03-02T02:35:39;97726.53;;;6.33;99.44
41624;BME280;27319;50.306;18.926;2024-03-02T02:39:40;97730.69;;;6.27;99.53
41624;BME280;27319;50.306;18.926;2024-03-02T02:43:40;97726.94;;;6.35;99.18
41624;BME280;27319;50.306;18.926;2024-03-02T02:47:41;97723.78;;;6.29;99.72
41624;BME280;27319;50.306;18.926;2024-03-02T02:51:42;97726.81;;;6.24;99.46
41624;BME280;27319;50.306;18.926;2024-03-02T02:55:43;97731.53;;;6.35;99.81
41624;BME280;27319;50.306;18.926;2024-03-02T02:59:44;97739.13;;;6.25;99.96
41624;BME280;27319;50.306;18.926;2024-03-02T03:03:45;97738.84;;;6.38;98.96
41624;BME280;27319;50.306;18.926;2024-03-02T03:07:45;97733.81;;;6.29;99.60
41624;BME280;27319;50.306;18.926;2024-03-02T03:11:46;97743.78;;;6.32;99.42
41624;BME280;27319;50.306;18.926;2024-03-02T03:15:47;97741.47;;;6.27;99.91
41624;BME280;27319;50.306;18.926;2024-03-02T03:19:46;97739.25;;;6.36;99.37
41624;BME280;27319;50.306;18.926;2024-03-02T03:22:46;97745.28;;;6.26;100.00
41624;BME280;27319;50.306;18.926;2024-03-02T03:25:47;97747.19;;;6.25;100.00
41624;BME280;27319;50.306;18.926;2024-03-02T03:28:48;97739.25;;;6.36;100.00
41624;BME280;27319;50.306;18.926;2024-03-02T03:31:49;97743.78;;;6.32;100.00
41624;BME280;27319;50.306;18.926;2024-03-02T03:35:10;97737.63;;;6.28;100.00
41624;BME280;27319;50.306;18.926;2024-03-02T03:39:11;97738.47;;;6.36;99.98
41624;BME280;27319;50.306;18.926;2024-03-02T03:43:12;97739.97;;;6.33;100.00
41624;BME280;27319;50.306;18.926;2024-03-02T03:47:13;97743.00;;;6.28;100.00
41624;BME280;27319;50.306;18.926;2024-03-02T03:51:14;97742.94;;;6.21;100.00
41624;BME280;27319;50.306;18.926;2024-03-02T03:55:15;97750.25;;;6.24;100.00
41624;BME280;27319;50.306;18.926;2024-03-02T03:59:16;97740.63;;;6.23;100.00
41624;BME280;27319;50.306;18.926;2024-03-02T04:03:16;97735.31;;;6.30;100.00
41624;BME280;27319;50.306;18.926;2024-03-02T04:07:17;97731.50;;;6.31;100.00
41624;BME280;27319;50.306;18.926;2024-03-02T04:11:01;97734.19;;;6.31;100.00
41624;BME280;27319;50.306;18.926;2024-03-02T04:14:04;97727.66;;;6.32;100.00
41624;BME280;27319;50.306;18.926;2024-03-02T04:17:07;97722.31;;;6.36;99.67
41624;BME280;27319;50.306;18.926;2024-03-02T04:20:27;97726.06;;;6.24;99.97
41624;BME280;27319;50.306;18.926;2024-03-02T04:24:28;97723.78;;;6.26;100.00
41624;BME280;27319;50.306;18.926;2024-03-02T04:28:29;97729.16;;;6.26;99.46
41624;BME280;27319;50.306;18.926;2024-03-02T04:32:30;97741.03;;;6.25;99.70
41624;BME280;27319;50.306;18.926;2024-03-02T04:36:31;97744.81;;;6.17;100.00
41624;BME280;27319;50.306;18.926;2024-03-02T04:40:32;97742.88;;;6.14;100.00
41624;BME280;27319;50.306;18.926;2024-03-02T04:44:14;97743.19;;;6.09;100.00
41624;BME280;27319;50.306;18.926;2024-03-02T04:47:35;97745.16;;;6.12;100.00
41624;BME280;27319;50.306;18.926;2024-03-02T04:51:36;97742.09;;;6.13;100.00
41624;BME280;27319;50.306;18.926;2024-03-02T04:55:37;97740.91;;;6.11;100.00
41624;BME280;27319;50.306;18.926;2024-03-02T04:59:36;97742.03;;;6.06;99.96
41624;BME280;27319;50.306;18.926;2024-03-02T05:03:17;97735.41;;;5.97;100.00
41624;BME280;27319;50.306;18.926;2024-03-02T05:06:18;97744.31;;;6.01;99.77
41624;BME280;27319;50.306;18.926;2024-03-02T05:09:19;97753.34;;;5.85;99.50
41624;BME280;27319;50.306;18.926;2024-03-02T05:12:20;97748.78;;;5.89;99.46
41624;BME280;27319;50.306;18.926;2024-03-02T05:16:00;97752.59;;;5.88;99.11
41624;BME280;27319;50.306;18.926;2024-03-02T05:20:01;97748.84;;;5.93;98.71
41624;BME280;27319;50.306;18.926;2024-03-02T05:24:02;97755.78;;;5.98;98.68
41624;BME280;27319;50.306;18.926;2024-03-02T05:28:02;97767.66;;;5.97;98.99
41624;BME280;27319;50.306;18.926;2024-03-02T05:32:03;97771.19;;;6.01;99.14
41624;BME280;27319;50.306;18.926;2024-03-02T05:36:04;97775.09;;;6.10;98.97
41624;BME280;27319;50.306;18.926;2024-03-02T05:40:00;97779.25;;;6.04;99.19
41624;BME280;27319;50.306;18.926;2024-03-02T05:43:01;97774.25;;;6.03;99.34
41624;BME280;27319;50.306;18.926;2024-03-02T05:46:02;97774.25;;;6.03;99.54
41624;BME280;27319;50.306;18.926;2024-03-02T05:49:03;97785.06;;;6.06;99.78
41624;BME280;27319;50.306;18.926;2024-03-02T05:52:04;97787.38;;;6.08;100.00
41624;BME280;27319;50.306;18.926;2024-03-02T05:55:25;97791.66;;;6.16;99.80
41624;BME280;27319;50.306;18.926;2024-03-02T05:59:26;97787.38;;;6.08;100.00
41624;BME280;27319;50.306;18.926;2024-03-02T06:03:27;97790.53;;;6.17;100.00
41624;BME280;27319;50.306;18.926;2024-03-02T06:07:03;97794.41;;;6.23;100.00
41624;BME280;27319;50.306;18.926;2024-03-02T06:11:04;97792.53;;;6.27;99.71
41624;BME280;27319;50.306;18.926;2024-03-02T06:15:05;97796.38;;;6.26;100.00
41624;BME280;27319;50.306;18.926;2024-03-02T06:19:06;97793.63;;;6.22;100.00
41624;BME280;27319;50.306;18.926;2024-03-02T06:22:42;97789.84;;;6.27;100.00
41624;BME280;27319;50.306;18.926;2024-03-02T06:25:43;97792.19;;;6.32;100.00
41624;BME280;27319;50.306;18.926;2024-03-02T06:28:45;97796.44;;;6.33;100.00
41624;BME280;27319;50.306;18.926;2024-03-02T06:32:06;97799.16;;;6.37;100.00
41624;BME280;27319;50.306;18.926;2024-03-02T06:36:07;97803.09;;;6.46;100.00
41624;BME280;27319;50.306;18.926;2024-03-02T06:40:08;97802.78;;;6.58;100.00
41624;BME280;27319;50.306;18.926;2024-03-02T06:43:48;97799.72;;;6.56;100.00
41624;BME280;27319;50.306;18.926;2024-03-02T06:46:49;97807.84;;;6.63;100.00
41624;BME280;27319;50.306;18.926;2024-03-02T06:49:50;97801.31;;;6.64;100.00
41624;BME280;27319;50.306;18.926;2024-03-02T06:52:51;97805.59;;;6.72;100.00
41624;BME280;27319;50.306;18.926;2024-03-02T06:55:52;97810.97;;;6.72;100.00
41624;BME280;27319;50.306;18.926;2024-03-02T06:58:53;97810.97;;;6.72;100.00
41624;BME280;27319;50.306;18.926;2024-03-02T07:01:55;97811.81;;;6.80;100.00
41624;BME280;27319;50.306;18.926;2024-03-02T07:04:56;97806.50;;;6.91;100.00
41624;BME280;27319;50.306;18.926;2024-03-02T07:07:57;97803.47;;;6.96;100.00
41624;BME280;27319;50.306;18.926;2024-03-02T07:10:58;97809.25;;;6.98;100.00
41624;BME280;27319;50.306;18.926;2024-03-02T07:14:19;97816.22;;;7.06;100.00
41624;BME280;27319;50.306;18.926;2024-03-02T07:18:18;97814.75;;;7.12;98.75
41624;BME280;27319;50.306;18.926;2024-03-02T07:22:19;97818.25;;;7.27;97.20
41624;BME280;27319;50.306;18.926;2024-03-02T07:26:20;97821.03;;;7.37;98.49
41624;BME280;27319;50.306;18.926;2024-03-02T07:30:21;97823.75;;;7.44;99.33
41624;BME280;27319;50.306;18.926;2024-03-02T07:34:21;97826.91;;;7.54;100.00
41624;BME280;27319;50.306;18.926;2024-03-02T07:38:23;97825.34;;;7.53;99.93
41624;BME280;27319;50.306;18.926;2024-03-02T07:42:23;97831.53;;;7.64;98.81
41624;BME280;27319;50.306;18.926;2024-03-02T07:46:24;97830.81;;;7.74;98.38
41624;BME280;27319;50.306;18.926;2024-03-02T07:50:25;97838.13;;;7.77;98.57
41624;BME280;27319;50.306;18.926;2024-03-02T07:54:26;97828.53;;;7.83;100.00
41624;BME280;27319;50.306;18.926;2024-03-02T07:58:07;97833.19;;;7.93;100.00
41624;BME280;27319;50.306;18.926;2024-03-02T08:01:08;97842.47;;;8.03;99.98
41624;BME280;27319;50.306;18.926;2024-03-02T08:04:29;97836.31;;;8.06;100.00
41624;BME280;27319;50.306;18.926;2024-03-02T08:08:30;97838.25;;;8.09;98.84
41624;BME280;27319;50.306;18.926;2024-03-02T08:12:30;97842.94;;;8.22;99.50
41624;BME280;27319;50.306;18.926;2024-03-02T08:16:31;97843.34;;;8.32;100.00
41624;BME280;27319;50.306;18.926;2024-03-02T08:20:32;97841.81;;;8.41;100.00
41624;BME280;27319;50.306;18.926;2024-03-02T08:24:32;97851.84;;;8.48;99.68
41624;BME280;27319;50.306;18.926;2024-03-02T08:28:33;97840.28;;;8.65;99.73
41624;BME280;27319;50.306;18.926;2024-03-02T08:32:34;97846.50;;;8.76;99.24
41624;BME280;27319;50.306;18.926;2024-03-02T08:36:35;97850.72;;;8.88;99.33
41624;BME280;27319;50.306;18.926;2024-03-02T08:40:36;97848.41;;;8.86;97.24
41624;BME280;27319;50.306;18.926;2024-03-02T08:44:37;97856.13;;;8.84;95.83
41624;BME280;27319;50.306;18.926;2024-03-02T08:48:38;97853.03;;;8.96;96.18
41624;BME280;27319;50.306;18.926;2024-03-02T08:52:39;97857.66;;;9.03;97.24
41624;BME280;27319;50.306;18.926;2024-03-02T08:56:39;97855.34;;;9.16;97.73
41624;BME280;27319;50.306;18.926;2024-03-02T09:00:40;97859.56;;;9.20;95.52
41624;BME280;27319;50.306;18.926;2024-03-02T09:04:22;97864.97;;;9.38;94.22
41624;BME280;27319;50.306;18.926;2024-03-02T09:08:23;97867.25;;;9.43;95.65
41624;BME280;27319;50.306;18.926;2024-03-02T09:12:24;97863.38;;;9.58;94.71
41624;BME280;27319;50.306;18.926;2024-03-02T09:16:28;97867.97;;;9.61;94.03
41624;BME280;27319;50.306;18.926;2024-03-02T09:20:29;97872.63;;;9.57;93.73
41624;BME280;27319;50.306;18.926;2024-03-02T09:24:30;97866.47;;;9.60;95.08
41624;BME280;27319;50.306;18.926;2024-03-02T09:28:30;97867.66;;;9.45;93.75
41624;BME280;27319;50.306;18.926;2024-03-02T09:32:34;97875.34;;;9.57;94.30
41624;BME280;27319;50.306;18.926;2024-03-02T09:36:38;97874.53;;;9.74;95.77
41624;BME280;27319;50.306;18.926;2024-03-02T09:40:41;97874.50;;;9.81;91.66
41624;BME280;27319;50.306;18.926;2024-03-02T09:44:40;97877.19;;;9.88;94.62
41624;BME280;27319;50.306;18.926;2024-03-02T09:48:41;97878.69;;;9.93;94.65
41624;BME280;27319;50.306;18.926;2024-03-02T09:52:48;97881.78;;;9.92;93.36
41624;BME280;27319;50.306;18.926;2024-03-02T09:56:46;97885.63;;;9.98;92.90
41624;BME280;27319;50.306;18.926;2024-03-02T10:00:46;97886.47;;;9.80;92.70
41624;BME280;27319;50.306;18.926;2024-03-02T10:04:29;97874.47;;;9.88;92.06
41624;BME280;27319;50.306;18.926;2024-03-02T10:08:02;97881.84;;;9.77;91.58
41624;BME280;27319;50.306;18.926;2024-03-02T10:12:06;97877.91;;;9.96;91.80
41624;BME280;27319;50.306;18.926;2024-03-02T10:16:12;97877.16;;;9.96;92.45
41624;BME280;27319;50.306;18.926;2024-03-02T10:20:22;97878.66;;;10.07;92.85
41624;BME280;27319;50.306;18.926;2024-03-02T10:24:08;97883.31;;;10.00;92.56
41624;BME280;27319;50.306;18.926;2024-03-02T10:28:09;97881.31;;;10.11;92.41
41624;BME280;27319;50.306;18.926;2024-03-02T10:32:10;97883.25;;;10.21;91.75
41624;BME280;27319;50.306;18.926;2024-03-02T10:36:11;97877.84;;;10.17;90.56
41624;BME280;27319;50.306;18.926;2024-03-02T10:39:52;97880.16;;;10.19;91.31
41624;BME280;27319;50.306;18.926;2024-03-02T10:42:53;97871.66;;;10.13;91.79
41624;BME280;27319;50.306;18.926;2024-03-02T10:45:56;97881.75;;;10.09;91.87
41624;BME280;27319;50.306;18.926;2024-03-02T10:49:17;97890.28;;;9.97;90.22
41624;BME280;27319;50.306;18.926;2024-03-02T10:53:18;97889.09;;;10.02;90.20
41624;BME280;27319;50.306;18.926;2024-03-02T10:57:20;97887.97;;;9.96;91.03
41624;BME280;27319;50.306;18.926;2024-03-02T11:01:20;97890.31;;;9.86;88.92
41624;BME280;27319;50.306;18.926;2024-03-02T11:05:31;97891.09;;;9.87;88.46
41624;BME280;27319;50.306;18.926;2024-03-02T11:09:22;97903.44;;;9.92;88.31
41624;BME280;27319;50.306;18.926;2024-03-02T11:13:30;97891.09;;;9.87;89.81
41624;BME280;27319;50.306;18.926;2024-03-02T11:17:09;97888.75;;;9.93;90.00
41624;BME280;27319;50.306;18.926;2024-03-02T11:20:31;97891.84;;;9.95;88.03
41624;BME280;27319;50.306;18.926;2024-03-02T11:35:10;97877.47;;;10.05;89.51
41624;BME280;27319;50.306;18.926;2024-03-02T11:39:11;97873.56;;;10.23;89.82
41624;BME280;27319;50.306;18.926;2024-03-02T11:42:53;97874.28;;;10.35;87.35
41624;BME280;27319;50.306;18.926;2024-03-02T11:45:58;97869.13;;;10.54;89.34
41624;BME280;27319;50.306;18.926;2024-03-02T11:49:00;97863.63;;;10.69;89.45
41624;BME280;27319;50.306;18.926;2024-03-02T11:52:01;97863.53;;;10.83;88.92
41624;BME280;27319;50.306;18.926;2024-03-02T11:55:03;97859.50;;;11.01;87.23
41624;BME280;27319;50.306;18.926;2024-03-02T11:58:05;97857.06;;;11.14;88.80
41624;BME280;27319;50.306;18.926;2024-03-02T12:01:06;97855.44;;;11.20;88.87
41624;BME280;27319;50.306;18.926;2024-03-02T12:04:07;97860.06;;;11.27;87.51
41624;BME280;27319;50.306;18.926;2024-03-02T12:07:09;97853.03;;;11.33;89.05
41624;BME280;27319;50.306;18.926;2024-03-02T12:10:10;97847.63;;;11.29;84.70
41624;BME280;27319;50.306;18.926;2024-03-02T12:13:11;97856.06;;;11.38;84.85
41624;BME280;27319;50.306;18.926;2024-03-02T12:16:12;97853.66;;;11.48;86.11
41624;BME280;27319;50.306;18.926;2024-03-02T12:19:33;97852.81;;;11.54;86.09
41624;BME280;27319;50.306;18.926;2024-03-02T12:23:34;97846.16;;;11.59;86.30
41624;BME280;27319;50.306;18.926;2024-03-02T12:27:34;97848.41;;;11.67;86.41
41624;BME280;27319;50.306;18.926;2024-03-02T12:31:35;97851.13;;;11.67;88.53
41624;BME280;27319;50.306;18.926;2024-03-02T12:35:36;97850.38;;;11.63;83.64
41624;BME280;27319;50.306;18.926;2024-03-02T12:39:37;97850.78;;;11.62;87.97
41624;BME280;27319;50.306;18.926;2024-03-02T12:43:38;97855.91;;;11.53;85.99
41624;BME280;27319;50.306;18.926;2024-03-02T12:47:39;97850.50;;;11.53;86.91
41624;BME280;27319;50.306;18.926;2024-03-02T12:51:39;97842.06;;;11.43;87.98
41624;BME280;27319;50.306;18.926;2024-03-02T12:55:40;97839.88;;;11.28;88.25
41624;BME280;27319;50.306;18.926;2024-03-02T12:59:44;97841.50;;;11.22;87.94
41624;BME280;27319;50.306;18.926;2024-03-02T13:03:42;97838.13;;;11.11;88.56
41624;BME280;27319;50.306;18.926;2024-03-02T13:07:43;97840.50;;;11.05;89.67
41624;BME280;27319;50.306;18.926;2024-03-02T13:11:44;97829.78;;;10.91;88.06
41624;BME280;27319;50.306;18.926;2024-03-02T13:15:48;97826.31;;;10.87;90.64
41624;BME280;27319;50.306;18.926;2024-03-02T13:23:32;97846.09;;;10.84;89.37
41624;BME280;27319;50.306;18.926;2024-03-02T13:27:33;97848.44;;;10.82;90.78
41624;BME280;27319;50.306;18.926;2024-03-02T13:31:34;97846.44;;;10.89;91.83
41624;BME280;27319;50.306;18.926;2024-03-02T13:35:35;97840.56;;;10.98;90.19
41624;BME280;27319;50.306;18.926;2024-03-02T13:39:36;97844.00;;;11.02;91.59
41624;BME280;27319;50.306;18.926;2024-03-02T13:43:37;97849.44;;;11.02;93.76
41624;BME280;27319;50.306;18.926;2024-03-02T13:47:38;97843.28;;;10.98;93.48
41624;BME280;27319;50.306;18.926;2024-03-02T13:51:38;97857.34;;;10.82;93.22
41624;BME280;27319;50.306;18.926;2024-03-02T13:55:40;97845.81;;;10.68;92.47
41624;BME280;27319;50.306;18.926;2024-03-02T13:59:41;97843.59;;;10.55;94.30
41624;BME280;27319;50.306;18.926;2024-03-02T14:03:41;97847.56;;;10.40;94.37
41624;BME280;27319;50.306;18.926;2024-03-02T14:07:42;97840.13;;;10.51;95.84
41624;BME280;27319;50.306;18.926;2024-03-02T14:11:43;97835.91;;;10.47;96.18
41624;BME280;27319;50.306;18.926;2024-03-02T14:15:44;97831.22;;;10.54;94.75
41624;BME280;27319;50.306;18.926;2024-03-02T14:19:45;97825.72;;;10.69;94.52
41624;BME280;27319;50.306;18.926;2024-03-02T14:23:46;97830.63;;;10.81;93.70
41624;BME280;27319;50.306;18.926;2024-03-02T14:27:49;97829.53;;;10.75;93.89
41624;BME280;27319;50.306;18.926;2024-03-02T14:31:50;97824.53;;;10.70;94.16
41624;BME280;27319;50.306;18.926;2024-03-02T14:35:52;97818.06;;;10.53;94.71
41624;BME280;27319;50.306;18.926;2024-03-02T14:39:52;97819.69;;;10.47;94.34
41624;BME280;27319;50.306;18.926;2024-03-02T14:43:53;97821.66;;;10.39;93.70
41624;BME280;27319;50.306;18.926;2024-03-02T14:47:54;97826.34;;;10.35;93.89
41624;BME280;27319;50.306;18.926;2024-03-02T14:51:55;97822.47;;;10.36;93.46
41624;BME280;27319;50.306;18.926;2024-03-02T14:55:58;97823.63;;;10.32;93.91
41624;BME280;27319;50.306;18.926;2024-03-02T14:59:57;97823.72;;;10.17;98.05
41624;BME280;27319;50.306;18.926;2024-03-02T15:03:58;97827.94;;;10.25;93.84
41624;BME280;27319;50.306;18.926;2024-03-02T15:07:58;97830.59;;;10.33;95.10
41624;BME280;27319;50.306;18.926;2024-03-02T15:11:59;97832.44;;;10.46;96.12
41624;BME280;27319;50.306;18.926;2024-03-02T15:16:00;97825.22;;;10.29;94.06
41624;BME280;27319;50.306;18.926;2024-03-02T15:20:01;97832.06;;;10.44;95.54
41624;BME280;27319;50.306;18.926;2024-03-02T15:24:02;97827.88;;;10.36;95.58
41624;BME280;27319;50.306;18.926;2024-03-02T15:28:03;97819.72;;;10.40;96.72
41624;BME280;27319;50.306;18.926;2024-03-02T15:32:05;97833.66;;;10.38;96.60
41624;BME280;27319;50.306;18.926;2024-03-02T15:36:06;97834.06;;;10.33;96.26
41624;BME280;27319;50.306;18.926;2024-03-02T15:40:07;97833.69;;;10.31;95.96
41624;BME280;27319;50.306;18.926;2024-03-02T15:43:48;97829.50;;;10.23;96.37
41624;BME280;27319;50.306;18.926;2024-03-02T15:47:09;97834.16;;;10.19;97.06
41624;BME280;27319;50.306;18.926;2024-03-02T15:51:10;97834.53;;;10.17;96.66
41624;BME280;27319;50.306;18.926;2024-03-02T15:55:10;97841.50;;;10.11;97.33
41624;BME280;27319;50.306;18.926;2024-03-02T15:59:11;97843.84;;;10.06;97.22
41624;BME280;27319;50.306;18.926;2024-03-02T16:03:12;97837.34;;;9.93;97.95
41624;BME280;27319;50.306;18.926;2024-03-02T16:07:13;97836.19;;;9.94;97.57
41624;BME280;27319;50.306;18.926;2024-03-02T16:11:14;97833.53;;;9.86;97.79
41624;BME280;27319;50.306;18.926;2024-03-02T16:14:55;97834.28;;;9.83;97.49
41624;BME280;27319;50.306;18.926;2024-03-02T16:17:56;97835.44;;;9.82;97.72
41624;BME280;27319;50.306;18.926;2024-03-02T16:20:59;97839.34;;;9.78;97.91
41624;BME280;27319;50.306;18.926;2024-03-02T16:24:00;97827.75;;;9.77;97.48
41624;BME280;27319;50.306;18.926;2024-03-02T16:27:01;97833.56;;;9.72;97.64
41624;BME280;27319;50.306;18.926;2024-03-02T16:30:24;97837.06;;;9.69;97.90
41624;BME280;27319;50.306;18.926;2024-03-02T16:34:25;97844.81;;;9.67;97.53
41624;BME280;27319;50.306;18.926;2024-03-02T16:38:26;97839.78;;;9.62;97.77
41624;BME280;27319;50.306;18.926;2024-03-02T16:42:27;97840.97;;;9.58;97.74
41624;BME280;27319;50.306;18.926;2024-03-02T16:46:28;97827.84;;;9.53;97.52
41624;BME280;27319;50.306;18.926;2024-03-02T16:50:29;97827.09;;;9.45;97.91
41624;BME280;27319;50.306;18.926;2024-03-02T16:54:30;97827.13;;;9.34;97.73
41624;BME280;27319;50.306;18.926;2024-03-02T16:58:31;97837.94;;;9.38;97.48
41624;BME280;27319;50.306;18.926;2024-03-02T17:02:32;97846.06;;;9.31;97.67
41624;BME280;27319;50.306;18.926;2024-03-02T17:06:32;97836.41;;;9.23;97.52
41624;BME280;27319;50.306;18.926;2024-03-02T17:10:33;97836.41;;;9.23;97.44
41624;BME280;27319;50.306;18.926;2024-03-02T17:14:33;97833.31;;;9.21;97.44
41624;BME280;27319;50.306;18.926;2024-03-02T17:18:34;97837.97;;;9.17;97.91
41624;BME280;27319;50.306;18.926;2024-03-02T17:22:35;97833.31;;;9.21;97.57
41624;BME280;27319;50.306;18.926;2024-03-02T17:26:36;97840.28;;;9.11;97.56
41624;BME280;27319;50.306;18.926;2024-03-02T17:30:37;97839.53;;;9.11;98.06
41624;BME280;27319;50.306;18.926;2024-03-02T17:34:38;97836.06;;;9.10;98.35
41624;BME280;27319;50.306;18.926;2024-03-02T17:38:39;97837.97;;;9.13;97.60
41624;BME280;27319;50.306;18.926;2024-03-02T17:42:40;97828.69;;;9.14;97.58
41624;BME280;27319;50.306;18.926;2024-03-02T17:46:41;97836.84;;;9.03;97.70
41624;BME280;27319;50.306;18.926;2024-03-02T17:50:42;97835.28;;;9.09;97.63
41624;BME280;27319;50.306;18.926;2024-03-02T17:54:22;97832.19;;;9.00;97.83
41624;BME280;27319;50.306;18.926;2024-03-02T17:57:23;97834.91;;;9.04;97.73
41624;BME280;27319;50.306;18.926;2024-03-02T18:00:24;97836.44;;;8.94;97.52
41624;BME280;27319;50.306;18.926;2024-03-02T18:03:49;97833.34;;;8.85;97.66
41624;BME280;27319;50.306;18.926;2024-03-02T18:07:50;97842.63;;;8.77;98.24
41624;BME280;27319;50.306;18.926;2024-03-02T18:11:51;97837.59;;;8.68;97.80
41624;BME280;27319;50.306;18.926;2024-03-02T18:15:53;97831.06;;;8.55;98.25
41624;BME280;27319;50.306;18.926;2024-03-02T18:19:55;97840.28;;;8.51;97.72
41624;BME280;27319;50.306;18.926;2024-03-02T18:23:36;97827.16;;;8.46;97.67
41624;BME280;27319;50.306;18.926;2024-03-02T18:26:37;97824.09;;;8.37;97.95
41624;BME280;27319;50.306;18.926;2024-03-02T18:29:38;97822.56;;;8.43;98.31
41624;BME280;27319;50.306;18.926;2024-03-02T18:32:42;97833.72;;;8.45;97.75
41624;BME280;27319;50.306;18.926;2024-03-02T18:35:43;97827.56;;;8.41;98.24
41624;BME280;27319;50.306;18.926;2024-03-02T18:39:04;97823.72;;;8.42;98.03
41624;BME280;27319;50.306;18.926;2024-03-02T18:43:05;97830.25;;;8.37;97.89
41624;BME280;27319;50.306;18.926;2024-03-02T18:47:05;97822.50;;;8.28;97.79
41624;BME280;27319;50.306;18.926;2024-03-02T18:51:09;97830.25;;;8.34;97.84
41624;BME280;27319;50.306;18.926;2024-03-02T18:55:10;97822.13;;;8.26;97.61
41624;BME280;27319;50.306;18.926;2024-03-02T18:59:10;97821.69;;;8.17;97.50
41624;BME280;27319;50.306;18.926;2024-03-02T19:03:15;97817.84;;;8.11;97.92
41624;BME280;27319;50.306;18.926;2024-03-02T19:07:15;97824.38;;;8.07;97.74
41624;BME280;27319;50.306;18.926;2024-03-02T19:11:17;97823.97;;;7.94;97.36
41624;BME280;27319;50.306;18.926;2024-03-02T19:15:17;97829.75;;;8.03;97.84
41624;BME280;27319;50.306;18.926;2024-03-02T19:19:18;97825.50;;;7.95;97.49
41624;BME280;27319;50.306;18.926;2024-03-02T19:23:19;97820.88;;;7.99;97.17
41624;BME280;27319;50.306;18.926;2024-03-02T19:27:23;97814.72;;;7.88;97.24
41624;BME280;27319;50.306;18.926;2024-03-02T19:31:23;97820.44;;;7.83;97.79
41624;BME280;27319;50.306;18.926;2024-03-02T19:35:24;97823.50;;;7.74;97.79
41624;BME280;27319;50.306;18.926;2024-03-02T19:39:25;97813.50;;;7.82;97.42
41624;BME280;27319;50.306;18.926;2024-03-02T19:43:06;97815.84;;;7.87;97.73
41624;BME280;27319;50.306;18.926;2024-03-02T19:46:07;97817.31;;;7.67;97.32
41624;BME280;27319;50.306;18.926;2024-03-02T19:49:08;97818.81;;;7.54;97.56
41624;BME280;27319;50.306;18.926;2024-03-02T19:52:29;97812.66;;;7.57;97.47
41624;BME280;27319;50.306;18.926;2024-03-02T19:56:30;97809.91;;;7.49;97.59
41624;BME280;27319;50.306;18.926;2024-03-02T20:00:30;97806.00;;;7.40;97.77
41624;BME280;27319;50.306;18.926;2024-03-02T20:04:31;97812.91;;;7.30;98.82